Terminal Aerodrome Forecast
Issued by NWS North Platte, NE

Home | Current Version | Previous Version | Graphics & Text | Print | Product List | Glossary On
Versions: 1 2 3 4 5 6 7 8 9 10 11 12 13 14 15 16 17
793
FTUS43 KLBF 290133 AAB
TAFVTN
TAF AMD
KVTN 290133Z 2902/2924 29012KT P6SM VCSH BKN070 OVC100
     FM290300 30007KT P6SM SKC
     FM291400 32011KT P6SM FEW200
     FM291600 32014G20KT P6SM FEW200=

USA.gov is the U.S. government's official web portal to all federal, state and local government web resources and services.